Time;durP1;ratioP1;P1;durP2;ratioP2;P2;SDS_P1;SDS_P2;PMS_P1;PMS_P2;Temp;Humidity;BMP_temperature;BMP_pressure;BME280_temperature;BME280_humidity;BME280_pressure;Samples;Min_cycle;Max_cycle;Signal;HPM_P1;HPM_P2
2022/07/03 00:02:21;;;;;;;1.23;0.10;;;;;;;18.24;70.34;101366.16;7381146;19;20460;-77
2022/07/03 00:04:48;;;;;;;0.95;0.10;;;;;;;18.25;69.76;101356.34;7379509;19;20455;-77
2022/07/03 00:07:16;;;;;;;0.60;0.13;;;;;;;18.23;69.48;101364.53;7379414;19;20022;-78
2022/07/03 00:09:43;;;;;;;1.65;0.17;;;;;;;18.14;69.11;101363.00;7377688;19;20042;-77
2022/07/03 00:12:10;;;;;;;2.45;0.20;;;;;;;18.10;69.78;101363.56;7379498;19;20022;-76
2022/07/03 00:14:37;;;;;;;1.17;0.20;;;;;;;18.15;71.41;101366.50;7380776;19;20686;-77
2022/07/03 00:17:05;;;;;;;1.10;0.20;;;;;;;18.16;70.71;101368.16;7377667;19;20356;-76
2022/07/03 00:19:32;;;;;;;1.45;0.50;;;;;;;18.18;70.05;101366.94;7381007;19;20026;-76
2022/07/03 00:22:04;;;;;;;1.23;0.10;;;;;;;18.20;69.54;101367.56;7381806;19;20347;-75
2022/07/03 00:24:49;;;;;;;1.75;0.20;;;;;;;18.18;69.30;101369.63;7385431;19;20014;-76
2022/07/03 00:27:19;;;;;;;0.63;0.10;;;;;;;18.20;69.50;101370.22;7392710;19;20041;-77
2022/07/03 00:29:47;;;;;;;0.90;0.20;;;;;;;18.19;70.19;101367.75;7389325;19;20015;-76
2022/07/03 00:32:27;;;;;;;0.17;0.10;;;;;;;18.15;70.16;101364.66;7392523;19;20475;-76
2022/07/03 00:34:56;;;;;;;2.08;0.10;;;;;;;18.13;69.43;101364.03;7390027;19;20021;-76
2022/07/03 00:37:24;;;;;;;1.55;0.17;;;;;;;18.10;69.46;101367.06;7387876;19;20046;-76
2022/07/03 00:39:51;;;;;;;0.77;0.17;;;;;;;18.06;69.42;101363.13;7384946;19;20036;-76
2022/07/03 00:42:19;;;;;;;1.13;0.28;;;;;;;17.97;69.57;101368.75;7388311;19;20101;-76
2022/07/03 00:44:51;;;;;;;1.35;0.20;;;;;;;17.92;70.96;101361.34;7386699;19;20019;-75
2022/07/03 00:47:23;;;;;;;1.55;0.20;;;;;;;17.80;69.77;101355.66;7386521;19;20014;-76
2022/07/03 00:49:52;;;;;;;1.13;0.40;;;;;;;17.77;70.40;101357.88;7386001;19;20542;-76
2022/07/03 00:52:21;;;;;;;1.10;0.10;;;;;;;17.78;70.38;101362.16;7391278;19;20014;-77
2022/07/03 00:54:59;;;;;;;1.77;0.10;;;;;;;17.79;70.69;101363.81;7391514;19;20066;-76
2022/07/03 00:57:29;;;;;;;1.20;0.10;;;;;;;17.81;70.67;101370.63;7390408;19;20525;-76
2022/07/03 00:59:57;;;;;;;1.00;0.20;;;;;;;17.82;70.66;101364.28;7390605;19;20014;-76
2022/07/03 01:02:40;;;;;;;3.60;0.20;;;;;;;17.85;70.41;101373.72;7389972;19;20049;-76
2022/07/03 01:05:26;;;;;;;1.00;0.10;;;;;;;17.87;70.08;101369.06;7390540;19;20011;-76
2022/07/03 01:08:11;;;;;;;1.65;0.10;;;;;;;17.87;69.89;101371.72;7389903;19;20014;-76
2022/07/03 01:10:40;;;;;;;2.30;0.10;;;;;;;17.87;70.13;101372.56;7390311;19;20014;-76
2022/07/03 01:13:17;;;;;;;2.80;0.20;;;;;;;17.85;69.95;101371.06;7392088;19;20459;-76
2022/07/03 01:16:06;;;;;;;1.92;0.10;;;;;;;17.82;70.05;101374.94;7389273;19;20105;-76
2022/07/03 01:18:46;;;;;;;1.08;0.20;;;;;;;17.80;70.77;101371.63;7390284;19;20475;-76
2022/07/03 01:22:00;;;;;;;0.85;0.10;;;;;;;17.77;70.46;101371.19;7387327;19;20014;-76
2022/07/03 01:25:08;;;;;;;1.67;0.10;;;;;;;17.73;70.24;101369.88;7391771;19;20052;-76
2022/07/03 01:27:42;;;;;;;1.50;0.17;;;;;;;17.72;70.70;101373.59;7390009;19;20017;-76
2022/07/03 01:30:10;;;;;;;2.05;0.10;;;;;;;17.69;70.72;101368.63;7389677;19;20606;-76
2022/07/03 01:32:43;;;;;;;4.60;0.20;;;;;;;17.64;71.60;101373.66;7390020;19;20073;-76
2022/07/03 01:35:14;;;;;;;2.60;0.20;;;;;;;17.53;71.35;101375.75;7387413;19;20679;-75
2022/07/03 01:37:41;;;;;;;3.50;0.20;;;;;;;17.51;71.98;101372.47;7385250;19;20014;-77
2022/07/03 01:40:08;;;;;;;0.85;0.10;;;;;;;17.50;71.89;101377.97;7389285;19;20324;-75
2022/07/03 01:42:40;;;;;;;1.55;0.10;;;;;;;17.51;71.87;101382.28;7391451;19;20018;-76
2022/07/03 01:45:09;;;;;;;1.23;0.10;;;;;;;17.52;72.13;101382.09;7388246;19;20037;-76
2022/07/03 01:47:41;;;;;;;2.20;0.20;;;;;;;17.50;71.83;101377.97;7390629;19;20387;-74
2022/07/03 01:50:13;;;;;;;1.33;0.10;;;;;;;17.49;72.41;101378.97;7387201;19;20078;-76
2022/07/03 01:52:50;;;;;;;2.45;0.10;;;;;;;17.43;72.02;101383.19;7386146;19;20022;-76
2022/07/03 01:55:20;;;;;;;1.08;0.17;;;;;;;17.39;72.06;101373.09;7389854;19;20868;-76
2022/07/03 01:57:49;;;;;;;2.35;0.20;;;;;;;17.41;71.95;101381.75;7389151;19;20021;-77
2022/07/03 02:00:27;;;;;;;2.03;0.10;;;;;;;17.39;71.92;101375.75;7388210;19;20015;-77
2022/07/03 02:03:05;;;;;;;2.95;0.10;;;;;;;17.35;71.96;101379.81;7389861;19;20020;-75
2022/07/03 02:05:37;;;;;;;3.70;0.20;;;;;;;17.36;74.36;101379.63;7382301;19;20026;-75
2022/07/03 02:08:19;;;;;;;4.35;0.75;;;;;;;17.32;72.76;101385.50;7387104;19;20427;-75
2022/07/03 02:10:57;;;;;;;2.47;0.20;;;;;;;17.28;72.29;101379.69;7388406;19;20021;-75
2022/07/03 02:13:28;;;;;;;4.35;0.43;;;;;;;17.27;72.10;101372.72;7387166;19;20024;-75
2022/07/03 02:15:58;;;;;;;2.92;0.20;;;;;;;17.25;72.44;101380.09;7388889;19;20021;-76
2022/07/03 02:18:32;;;;;;;1.60;0.10;;;;;;;17.23;72.47;101378.59;7388090;19;20054;-75
2022/07/03 02:21:16;;;;;;;2.25;0.20;;;;;;;17.21;73.71;101378.81;7386881;19;20146;-76
2022/07/03 02:24:17;;;;;;;1.85;0.10;;;;;;;17.20;73.12;101377.16;7390261;19;20015;-75
2022/07/03 02:26:54;;;;;;;2.08;1.08;;;;;;;17.13;72.43;101378.03;7387886;19;20017;-75
2022/07/03 02:29:30;;;;;;;1.30;0.20;;;;;;;17.06;72.80;101369.97;7387182;19;20018;-75
2022/07/03 02:32:00;;;;;;;3.03;0.17;;;;;;;16.97;72.98;101371.88;7385375;19;20020;-76
2022/07/03 02:34:30;;;;;;;1.35;0.50;;;;;;;16.96;73.37;101366.75;7388024;19;20193;-75
2022/07/03 02:37:01;;;;;;;2.35;0.20;;;;;;;16.99;73.74;101371.69;7387397;19;20024;-76
2022/07/03 02:39:36;;;;;;;5.55;0.32;;;;;;;16.96;73.72;101367.59;7388678;19;20018;-76
2022/07/03 02:42:12;;;;;;;3.08;0.20;;;;;;;16.98;73.48;101375.38;7385717;19;20470;-76
2022/07/03 02:44:46;;;;;;;4.53;0.20;;;;;;;16.95;73.66;101375.75;7389168;19;20010;-76
2022/07/03 02:47:44;;;;;;;2.95;0.20;;;;;;;16.92;73.48;101374.25;7385126;19;20018;-76
2022/07/03 02:50:15;;;;;;;2.20;0.10;;;;;;;16.89;73.89;101384.44;7385658;19;20019;-76
2022/07/03 02:52:52;;;;;;;0.98;0.10;;;;;;;16.83;74.66;101374.50;7387184;19;20418;-76
2022/07/03 02:55:41;;;;;;;1.60;0.13;;;;;;;16.83;74.41;101385.13;7387038;19;20046;-75
2022/07/03 02:58:38;;;;;;;3.50;0.15;;;;;;;16.76;74.24;101382.38;7385651;19;20026;-76
2022/07/03 03:01:09;;;;;;;3.67;0.22;;;;;;;16.71;74.41;101395.38;7385183;19;20017;-75
2022/07/03 03:03:48;;;;;;;2.65;0.17;;;;;;;16.63;74.61;101395.44;7385354;19;20029;-75
2022/07/03 03:06:20;;;;;;;1.10;0.10;;;;;;;16.62;74.84;101385.81;7383920;19;20574;-75
2022/07/03 03:08:49;;;;;;;1.27;0.50;;;;;;;16.58;74.86;101384.50;7387358;19;20014;-76
2022/07/03 03:11:28;;;;;;;1.58;0.20;;;;;;;16.57;75.09;101386.31;7386413;19;20011;-75
2022/07/03 03:13:57;;;;;;;4.53;0.45;;;;;;;16.56;75.26;101381.16;7386587;19;20021;-76
2022/07/03 03:16:25;;;;;;;3.28;0.20;;;;;;;16.53;75.16;101385.03;7385089;19;20025;-76
2022/07/03 03:18:52;;;;;;;2.70;0.10;;;;;;;16.56;75.90;101389.16;7386338;19;20010;-76
2022/07/03 03:21:19;;;;;;;3.67;0.20;;;;;;;16.56;75.63;101383.84;7381645;19;20018;-76
2022/07/03 03:23:51;;;;;;;2.55;0.20;;;;;;;16.57;75.39;101378.34;7388771;19;20560;-76
2022/07/03 03:26:22;;;;;;;2.63;0.17;;;;;;;16.58;76.18;101376.50;7385860;19;20014;-78
2022/07/03 03:28:51;;;;;;;2.72;0.20;;;;;;;16.57;75.53;101374.84;7386087;19;20078;-76
2022/07/03 03:31:19;;;;;;;2.30;0.20;;;;;;;16.53;75.36;101385.03;7386067;19;20038;-76
2022/07/03 03:33:48;;;;;;;2.45;0.20;;;;;;;16.50;75.58;101374.78;7384725;19;20038;-76
2022/07/03 03:36:18;;;;;;;3.58;0.17;;;;;;;16.47;75.64;101380.41;7383136;19;20022;-76
2022/07/03 03:38:47;;;;;;;4.78;0.20;;;;;;;16.43;75.78;101373.81;7386683;19;20026;-76
2022/07/03 03:41:14;;;;;;;1.20;0.20;;;;;;;16.44;75.83;101379.97;7384657;19;20475;-76
2022/07/03 03:43:45;;;;;;;2.85;0.15;;;;;;;16.40;76.04;101378.66;7385509;19;20362;-76
2022/07/03 03:46:14;;;;;;;3.60;0.20;;;;;;;16.38;76.00;101376.19;7385936;19;20007;-76
2022/07/03 03:48:41;;;;;;;0.75;0.13;;;;;;;16.33;76.48;101381.19;7384864;19;20010;-77
2022/07/03 03:51:08;;;;;;;2.40;0.20;;;;;;;16.31;76.36;101377.03;7383260;19;20765;-76
2022/07/03 03:53:35;;;;;;;3.58;0.47;;;;;;;16.26;76.96;101389.03;7382817;19;20351;-75
2022/07/03 03:56:14;;;;;;;3.13;0.20;;;;;;;16.20;76.77;101384.41;7385115;19;20099;-76
2022/07/03 03:58:43;;;;;;;6.50;0.30;;;;;;;16.20;78.43;101388.94;7387074;19;20026;-76
2022/07/03 04:01:11;;;;;;;1.73;0.13;;;;;;;16.23;77.86;101381.41;7383200;19;20025;-75
2022/07/03 04:03:41;;;;;;;6.57;0.70;;;;;;;16.24;77.59;101387.56;7386497;19;20467;-75
2022/07/03 04:06:08;;;;;;;4.63;0.65;;;;;;;16.25;77.46;101384.72;7384148;19;20553;-75
2022/07/03 04:08:35;;;;;;;2.70;0.22;;;;;;;16.23;77.08;101385.91;7382699;19;20014;-76
2022/07/03 04:11:02;;;;;;;3.90;0.20;;;;;;;16.20;77.31;101388.94;7382161;19;20042;-75
2022/07/03 04:13:29;;;;;;;2.92;0.30;;;;;;;16.19;77.64;101396.06;7385729;19;20032;-77
2022/07/03 04:15:56;;;;;;;5.78;0.30;;;;;;;16.21;77.61;101391.38;7384849;19;20014;-75
2022/07/03 04:18:24;;;;;;;4.15;0.20;;;;;;;16.23;77.34;101394.69;7385442;19;20081;-75
2022/07/03 04:20:57;;;;;;;1.88;0.20;;;;;;;16.23;77.20;101393.88;7379941;19;20021;-75
2022/07/03 04:23:24;;;;;;;2.95;0.22;;;;;;;16.22;77.47;101397.53;7384755;19;20015;-75
2022/07/03 04:25:51;;;;;;;1.52;0.20;;;;;;;16.21;77.55;101403.84;7383103;19;20018;-75
2022/07/03 04:28:18;;;;;;;3.85;1.13;;;;;;;16.21;77.54;101393.22;7385827;19;20014;-75
2022/07/03 04:30:47;;;;;;;1.13;0.10;;;;;;;16.20;77.63;101400.34;7385826;19;20022;-75
2022/07/03 04:33:14;;;;;;;3.40;0.20;;;;;;;16.22;78.22;101393.03;7385057;19;20070;-75
2022/07/03 04:35:41;;;;;;;2.00;0.20;;;;;;;16.22;77.41;101410.81;7380074;19;20015;-75
2022/07/03 04:38:08;;;;;;;2.30;0.20;;;;;;;16.21;77.35;101406.50;7385076;19;20049;-75
2022/07/03 04:40:35;;;;;;;5.80;0.20;;;;;;;16.19;77.33;101401.38;7381922;19;20015;-75
2022/07/03 04:43:01;;;;;;;4.78;0.20;;;;;;;16.18;77.27;101405.03;7383779;19;20045;-76
2022/07/03 04:45:28;;;;;;;4.00;0.50;;;;;;;16.13;77.44;101409.19;7383837;19;20021;-75
2022/07/03 04:47:55;;;;;;;2.40;0.20;;;;;;;16.09;77.68;101410.56;7385651;19;20014;-75
2022/07/03 04:50:22;;;;;;;3.90;0.30;;;;;;;16.06;77.95;101408.22;7382188;19;20019;-75
2022/07/03 04:52:50;;;;;;;3.55;0.35;;;;;;;16.03;78.04;101412.06;7385150;19;20014;-76
2022/07/03 04:55:16;;;;;;;3.03;0.30;;;;;;;16.05;78.36;101418.03;7384627;19;20016;-78
2022/07/03 04:57:43;;;;;;;2.47;0.40;;;;;;;16.04;78.25;101408.44;7386494;19;20010;-75
2022/07/03 05:00:11;;;;;;;1.42;0.30;;;;;;;16.04;78.33;101416.41;7382351;19;20013;-75
2022/07/03 05:02:37;;;;;;;5.50;0.45;;;;;;;16.04;78.15;101415.56;7379368;19;20019;-75
2022/07/03 05:05:05;;;;;;;4.85;0.20;;;;;;;16.08;78.52;101416.84;7382206;19;20036;-76
2022/07/03 05:07:32;;;;;;;2.40;0.22;;;;;;;16.13;77.98;101418.00;7380996;19;20018;-75
2022/07/03 05:09:59;;;;;;;1.70;0.20;;;;;;;16.13;77.52;101412.69;7382805;19;20018;-76
2022/07/03 05:12:26;;;;;;;2.85;0.20;;;;;;;16.13;77.66;101419.81;7387144;19;20032;-76
2022/07/03 05:14:53;;;;;;;5.88;0.22;;;;;;;16.12;77.85;101421.66;7388618;19;20023;-76
2022/07/03 05:17:20;;;;;;;5.75;0.35;;;;;;;16.11;77.56;101429.78;7391390;19;20010;-76
2022/07/03 05:19:47;;;;;;;5.03;0.52;;;;;;;16.11;78.73;101433.25;7388366;19;20035;-76
2022/07/03 05:22:14;;;;;;;1.55;0.20;;;;;;;16.14;78.78;101437.41;7389050;19;20014;-77
2022/07/03 05:24:41;;;;;;;1.90;0.40;;;;;;;16.12;78.53;101424.31;7391442;19;20010;-76
2022/07/03 05:27:08;;;;;;;2.42;0.20;;;;;;;16.13;78.19;101427.78;7389362;19;20014;-76
2022/07/03 05:29:34;;;;;;;4.03;0.25;;;;;;;16.12;77.91;101434.09;7391006;19;20030;-76
2022/07/03 05:32:05;;;;;;;4.03;0.17;;;;;;;16.09;78.16;101431.78;7389156;19;20031;-75
2022/07/03 05:34:32;;;;;;;1.80;0.20;;;;;;;16.07;78.28;101442.59;7386595;19;20112;-76
2022/07/03 05:36:58;;;;;;;4.68;0.30;;;;;;;16.07;78.58;101439.94;7386759;19;20015;-77
2022/07/03 05:39:31;;;;;;;2.67;0.30;;;;;;;16.12;78.51;101436.75;7390180;19;20017;-77
2022/07/03 05:41:59;;;;;;;2.65;0.10;;;;;;;16.14;78.16;101443.56;7387517;19;20479;-77
2022/07/03 05:44:25;;;;;;;1.77;0.40;;;;;;;16.15;78.28;101439.88;7389874;19;20014;-75
2022/07/03 05:46:52;;;;;;;5.97;0.38;;;;;;;16.16;78.03;101449.50;7388706;19;20341;-76
2022/07/03 05:49:19;;;;;;;2.78;0.22;;;;;;;16.18;77.99;101446.69;7388333;19;20460;-76
2022/07/03 05:51:46;;;;;;;1.95;0.30;;;;;;;16.18;77.82;101442.19;7385968;19;20022;-77
2022/07/03 05:54:13;;;;;;;4.75;0.85;;;;;;;16.19;78.88;101446.50;7388214;19;20498;-77
2022/07/03 05:56:40;;;;;;;2.92;0.20;;;;;;;16.20;78.29;101444.69;7388308;19;20043;-76
2022/07/03 05:59:07;;;;;;;2.33;0.20;;;;;;;16.22;77.81;101450.63;7388806;19;20345;-76
2022/07/03 06:01:35;;;;;;;1.50;0.20;;;;;;;16.22;77.74;101442.66;7387868;19;20015;-76
2022/07/03 06:04:02;;;;;;;3.97;0.20;;;;;;;16.23;77.68;101441.69;7388519;19;20025;-75
2022/07/03 06:06:29;;;;;;;3.28;0.30;;;;;;;16.27;77.44;101437.66;7386437;19;20077;-76
2022/07/03 06:08:56;;;;;;;4.47;0.88;;;;;;;16.33;77.88;101434.31;7385638;19;20094;-76
2022/07/03 06:11:22;;;;;;;4.88;0.20;;;;;;;16.38;77.81;101439.94;7385182;19;20147;-76
2022/07/03 06:13:49;;;;;;;5.15;0.30;;;;;;;16.43;77.31;101434.09;7390552;19;20086;-76
2022/07/03 06:16:16;;;;;;;3.08;0.20;;;;;;;16.46;76.88;101433.72;7387286;19;20032;-76
2022/07/03 06:18:44;;;;;;;3.08;0.30;;;;;;;16.46;76.53;101429.22;7391031;19;20423;-76
2022/07/03 06:21:13;;;;;;;2.97;0.20;;;;;;;16.51;76.74;101434.84;7387588;19;20572;-77
2022/07/03 06:23:45;;;;;;;3.78;0.20;;;;;;;16.53;76.55;101432.84;7388434;19;20019;-76
2022/07/03 06:26:15;;;;;;;2.78;0.30;;;;;;;16.61;78.16;101434.63;7387747;19;20007;-76
2022/07/03 06:28:42;;;;;;;2.65;0.30;;;;;;;16.63;76.64;101433.47;7390574;19;20038;-76
2022/07/03 06:31:14;;;;;;;2.95;0.20;;;;;;;16.64;76.30;101434.31;7386091;19;20018;-77
2022/07/03 06:33:47;;;;;;;6.18;0.30;;;;;;;16.67;76.05;101441.91;7387520;19;20078;-76
2022/07/03 06:36:14;;;;;;;2.58;0.60;;;;;;;16.76;75.84;101437.38;7386732;19;20015;-76
2022/07/03 06:38:41;;;;;;;5.53;0.20;;;;;;;16.81;75.71;101435.81;7388206;19;20042;-76
2022/07/03 06:41:08;;;;;;;1.60;0.10;;;;;;;16.84;75.56;101440.78;7387284;19;20020;-76
2022/07/03 06:43:51;;;;;;;2.58;0.20;;;;;;;16.89;75.48;101437.59;7387115;19;20086;-76
2022/07/03 06:46:18;;;;;;;3.55;0.20;;;;;;;16.97;75.11;101442.84;7385009;19;20498;-76
2022/07/03 06:48:45;;;;;;;5.55;0.20;;;;;;;17.00;74.77;101445.97;7387558;19;20526;-76
2022/07/03 06:51:11;;;;;;;2.17;0.30;;;;;;;17.00;74.93;101431.84;7385492;19;20076;-77
2022/07/03 06:53:55;;;;;;;5.18;0.20;;;;;;;16.98;74.35;101437.34;7386485;19;20014;-75
2022/07/03 06:56:22;;;;;;;4.00;0.30;;;;;;;17.00;74.10;101448.63;7388192;19;20010;-76
2022/07/03 06:58:55;;;;;;;4.05;0.40;;;;;;;17.00;74.53;101447.81;7386214;19;20014;-75
2022/07/03 07:01:22;;;;;;;4.20;0.25;;;;;;;17.04;75.40;101441.13;7385171;19;20037;-75
2022/07/03 07:03:51;;;;;;;2.67;0.20;;;;;;;17.08;74.86;101447.72;7386198;19;20077;-76
2022/07/03 07:06:18;;;;;;;3.45;0.30;;;;;;;17.11;74.14;101439.41;7384897;19;20194;-76
2022/07/03 07:08:46;;;;;;;1.67;0.15;;;;;;;17.17;73.69;101437.88;7386292;19;20022;-76
2022/07/03 07:11:13;;;;;;;3.00;0.20;;;;;;;17.18;74.02;101435.00;7387779;19;20016;-76
2022/07/03 07:13:54;;;;;;;6.13;0.30;;;;;;;17.24;73.72;101436.13;7388824;19;20531;-76
2022/07/03 07:16:21;;;;;;;5.20;0.30;;;;;;;17.29;73.40;101439.06;7386046;19;20021;-76
2022/07/03 07:18:48;;;;;;;2.33;0.20;;;;;;;17.34;73.17;101434.03;7387286;19;20032;-75
2022/07/03 07:21:15;;;;;;;3.35;0.28;;;;;;;17.37;72.62;101434.47;7385761;19;20011;-76
2022/07/03 07:23:48;;;;;;;3.00;0.30;;;;;;;17.39;72.86;101440.44;7384142;19;20315;-76
2022/07/03 07:26:14;;;;;;;3.75;0.40;;;;;;;17.39;72.89;101443.09;7385929;19;20022;-76
2022/07/03 07:28:41;;;;;;;4.32;0.38;;;;;;;17.36;72.34;101451.47;7387530;19;20369;-77
2022/07/03 07:31:09;;;;;;;1.65;0.22;;;;;;;17.34;72.58;101448.16;7384716;19;20014;-77
2022/07/03 07:33:44;;;;;;;6.10;0.32;;;;;;;17.30;72.47;101451.34;7382777;19;20018;-76
2022/07/03 07:36:17;;;;;;;3.78;0.30;;;;;;;17.33;72.83;101453.66;7384267;19;20010;-76
2022/07/03 07:38:44;;;;;;;5.75;0.20;;;;;;;17.41;72.55;101458.91;7384575;19;20327;-76
2022/07/03 07:41:11;;;;;;;2.58;0.20;;;;;;;17.49;72.34;101453.47;7385143;19;20558;-76
2022/07/03 07:43:38;;;;;;;2.33;0.25;;;;;;;17.56;71.99;101457.06;7383436;19;20084;-76
2022/07/03 07:46:05;;;;;;;3.85;0.20;;;;;;;17.61;71.80;101461.88;7385426;19;20006;-76
2022/07/03 07:48:34;;;;;;;3.00;0.20;;;;;;;17.77;71.49;101470.53;7384431;19;20015;-76
2022/07/03 07:51:16;;;;;;;3.85;0.82;;;;;;;18.00;71.90;101466.91;7384025;19;20431;-76
2022/07/03 07:54:04;;;;;;;2.53;0.30;;;;;;;18.12;70.17;101466.25;7384359;19;20010;-77
2022/07/03 07:56:34;;;;;;;2.53;0.32;;;;;;;18.19;69.57;101469.00;7383489;19;20010;-75
2022/07/03 07:59:01;;;;;;;5.10;0.40;;;;;;;18.21;69.11;101470.47;7383772;19;20052;-76
2022/07/03 08:06:59;;;;;;;3.25;0.50;;;;;;;18.21;68.88;101472.31;7383370;19;20384;-77
2022/07/03 08:09:29;;;;;;;4.82;0.20;;;;;;;18.23;69.58;101476.44;7383530;19;20014;-78
2022/07/03 08:11:56;;;;;;;2.42;0.25;;;;;;;18.24;69.28;101472.75;7383231;19;20011;-76
2022/07/03 08:14:23;;;;;;;0.70;0.20;;;;;;;18.26;68.60;101475.22;7382928;19;20933;-76
2022/07/03 08:16:50;;;;;;;2.92;0.20;;;;;;;18.27;68.70;101483.06;7383443;19;20026;-76
2022/07/03 08:19:17;;;;;;;2.10;0.20;;;;;;;18.27;68.26;101475.06;7385043;19;20020;-76
2022/07/03 08:21:44;;;;;;;1.35;0.20;;;;;;;18.27;67.93;101479.56;7383046;19;20539;-76
2022/07/03 08:24:12;;;;;;;5.38;0.30;;;;;;;18.29;70.10;101477.50;7384200;19;20523;-77
2022/07/03 08:26:39;;;;;;;2.97;0.40;;;;;;;18.28;69.28;101475.88;7383474;19;20070;-76
2022/07/03 08:29:06;;;;;;;3.63;0.30;;;;;;;18.24;68.47;101475.41;7384517;19;20010;-76
2022/07/03 08:31:33;;;;;;;3.28;0.20;;;;;;;18.22;68.60;101468.63;7383640;19;20365;-77
2022/07/03 08:34:00;;;;;;;3.22;0.22;;;;;;;18.25;68.51;101476.25;7383239;19;20013;-77
2022/07/03 08:36:27;;;;;;;1.20;0.20;;;;;;;18.29;68.10;101486.34;7382170;19;20472;-76
2022/07/03 08:38:56;;;;;;;3.38;0.30;;;;;;;18.31;67.84;101473.66;7383813;19;20517;-77
2022/07/03 08:41:25;;;;;;;2.47;0.22;;;;;;;18.37;69.50;101478.25;7383981;19;20015;-76
2022/07/03 08:43:58;;;;;;;1.75;0.40;;;;;;;18.41;67.71;101473.34;7385572;19;20029;-77
2022/07/03 08:46:30;;;;;;;7.70;0.47;;;;;;;18.45;67.35;101474.63;7386554;19;20018;-77
2022/07/03 08:49:01;;;;;;;6.03;0.30;;;;;;;18.48;67.35;101468.94;7391214;19;20017;-78
2022/07/03 08:51:29;;;;;;;1.58;0.30;;;;;;;18.48;67.28;101481.44;7389797;19;20074;-76
2022/07/03 08:54:01;;;;;;;3.78;0.30;;;;;;;18.45;67.22;101479.13;7389771;19;20086;-76
2022/07/03 08:56:28;;;;;;;3.70;0.40;;;;;;;18.45;67.14;101471.97;7389742;19;20010;-76
2022/07/03 08:59:00;;;;;;;1.77;0.20;;;;;;;18.47;67.56;101471.78;7388289;19;20338;-76
2022/07/03 09:01:28;;;;;;;1.77;0.10;;;;;;;18.49;67.85;101475.91;7389671;19;20431;-78
2022/07/03 09:03:59;;;;;;;1.73;0.20;;;;;;;18.56;67.65;101471.50;7392015;19;20024;-78
2022/07/03 09:06:33;;;;;;;3.10;0.20;;;;;;;18.60;68.07;101472.78;7388180;19;20018;-77
2022/07/03 09:09:03;;;;;;;3.20;0.28;;;;;;;18.64;67.25;101466.03;7388975;19;20779;-79
2022/07/03 09:11:33;;;;;;;1.63;0.20;;;;;;;18.70;66.95;101467.97;7389064;19;20113;-77
2022/07/03 09:14:06;;;;;;;1.88;0.20;;;;;;;18.75;66.39;101470.03;7391860;19;20327;-78
2022/07/03 09:16:37;;;;;;;2.50;0.10;;;;;;;18.78;66.71;101469.69;7387784;19;20515;-78
2022/07/03 09:19:04;;;;;;;2.08;0.47;;;;;;;18.84;67.61;101471.59;7389922;19;20346;-77
2022/07/03 09:21:40;;;;;;;3.17;0.10;;;;;;;18.83;65.62;101467.28;7388644;19;20032;-77
2022/07/03 09:24:10;;;;;;;2.75;0.40;;;;;;;18.85;65.08;101464.38;7390893;19;20011;-76
2022/07/03 09:26:51;;;;;;;3.45;0.20;;;;;;;18.89;64.98;101463.84;7389880;19;20498;-77
2022/07/03 09:29:19;;;;;;;1.88;0.20;;;;;;;18.99;65.14;101468.84;7392029;19;20022;-76
2022/07/03 09:31:55;;;;;;;3.50;0.17;;;;;;;19.07;65.10;101480.22;7388550;19;20025;-77
2022/07/03 09:34:24;;;;;;;2.88;0.20;;;;;;;19.19;65.21;101477.84;7389021;19;20035;-77
2022/07/03 09:36:51;;;;;;;0.70;0.13;;;;;;;19.27;64.49;101469.69;7387025;19;20082;-78
2022/07/03 09:39:27;;;;;;;0.70;0.10;;;;;;;19.31;63.74;101467.44;7387924;19;20418;-78
2022/07/03 09:42:02;;;;;;;2.83;0.38;;;;;;;19.32;63.63;101474.44;7386549;19;20030;-77
2022/07/03 09:44:33;;;;;;;1.30;0.20;;;;;;;19.29;63.91;101478.34;7347742;19;20022;-78
2022/07/03 09:47:23;;;;;;;1.25;0.10;;;;;;;19.25;63.78;101482.38;7379775;19;20013;-79
2022/07/03 09:49:53;;;;;;;3.42;0.20;;;;;;;19.25;63.16;101471.72;7387853;19;20530;-77
2022/07/03 09:52:38;;;;;;;1.48;0.10;;;;;;;19.35;63.77;101476.75;7388432;19;20933;-77
2022/07/03 09:55:08;;;;;;;2.88;0.10;;;;;;;19.45;62.27;101483.44;7388267;19;20463;-80
2022/07/03 09:57:43;;;;;;;2.63;0.20;;;;;;;19.56;61.21;101480.19;7388979;19;20014;-78
2022/07/03 10:00:21;;;;;;;1.15;0.10;;;;;;;19.73;60.68;101480.72;7386832;19;20026;-79
2022/07/03 10:02:56;;;;;;;1.52;0.13;;;;;;;19.78;60.61;101482.78;7386810;19;20525;-78
2022/07/03 10:05:34;;;;;;;1.85;0.17;;;;;;;19.77;60.12;101489.16;7385555;19;20025;-77
2022/07/03 10:08:04;;;;;;;1.50;0.20;;;;;;;19.75;60.55;101478.69;7385098;19;20014;-78
2022/07/03 10:10:33;;;;;;;1.05;0.10;;;;;;;19.84;59.91;101477.50;7385511;19;20026;-77
2022/07/03 10:13:01;;;;;;;3.67;0.25;;;;;;;19.96;59.43;101477.78;7390205;19;20024;-78
2022/07/03 10:15:37;;;;;;;0.80;0.10;;;;;;;20.10;58.87;101484.00;7387051;19;20382;-77
2022/07/03 10:18:12;;;;;;;2.22;0.20;;;;;;;20.20;58.80;101484.44;7387910;19;20017;-78
2022/07/03 10:20:50;;;;;;;1.60;0.10;;;;;;;20.27;57.95;101483.44;7386173;19;20626;-78
2022/07/03 10:23:21;;;;;;;2.28;0.20;;;;;;;20.37;57.62;101480.41;7386569;19;20015;-78
2022/07/03 10:25:49;;;;;;;1.00;0.20;;;;;;;20.46;59.62;101482.72;7387947;19;20355;-77
2022/07/03 10:28:19;;;;;;;2.42;0.20;;;;;;;20.51;58.11;101478.63;7389162;19;20014;-79
2022/07/03 10:30:47;;;;;;;0.73;0.20;;;;;;;20.52;56.93;101475.72;7390039;19;20024;-79
2022/07/03 10:33:17;;;;;;;2.85;0.22;;;;;;;20.47;57.92;101481.69;7388841;19;20007;-78
2022/07/03 10:35:52;;;;;;;1.98;0.20;;;;;;;20.41;57.80;101479.84;7384980;19;20015;-79
2022/07/03 10:39:15;;;;;;;0.93;0.20;;;;;;;20.35;57.87;101487.81;7387432;19;20016;-78
2022/07/03 10:45:18;;;;;;;;;;;;;;;20.20;58.41;101482.59;7388124;19;20646;-78
2022/07/03 10:48:00;;;;;;;1.33;0.20;;;;;;;20.12;57.93;101482.75;7383828;19;19922;-79
2022/07/03 10:54:56;;;;;;;2.70;0.40;;;;;;;20.19;56.77;101478.28;7389187;19;20268;-78
2022/07/03 11:01:25;;;;;;;4.15;0.20;;;;;;;20.30;58.00;101477.69;7384403;19;20078;-77
2022/07/03 11:07:10;;;;;;;3.92;0.98;;;;;;;20.25;57.78;101485.50;7382301;19;20387;-79
2022/07/03 11:09:44;;;;;;;2.90;0.65;;;;;;;20.25;57.55;101480.16;7387107;19;20025;-79
2022/07/03 11:12:37;;;;;;;2.72;0.30;;;;;;;20.24;57.24;101466.97;7385623;19;20021;-78
2022/07/03 11:15:39;;;;;;;3.53;0.50;;;;;;;20.36;55.21;101476.09;7383400;19;20014;-76
2022/07/03 11:18:27;;;;;;;0.82;0.15;;;;;;;20.40;54.84;101478.19;7383571;19;20337;-78
2022/07/03 11:21:43;;;;;;;1.85;0.30;;;;;;;20.51;55.27;101478.63;7380011;19;20013;-78
2022/07/03 11:24:51;;;;;;;1.63;0.30;;;;;;;20.64;55.26;101473.28;7381536;19;20033;-77
2022/07/03 11:27:52;;;;;;;4.57;0.30;;;;;;;20.75;54.65;101470.84;7387866;19;20017;-78
2022/07/03 11:37:23;;;;;;;1.33;0.20;;;;;;;20.89;53.26;101475.19;7386190;19;20090;-79
2022/07/03 11:47:27;;;;;;;2.80;0.20;;;;;;;20.74;53.98;101485.25;7385516;19;20034;-77
2022/07/03 11:50:11;;;;;;;3.45;0.20;;;;;;;20.64;55.06;101489.34;7376597;19;20049;-76
2022/07/03 11:53:10;;;;;;;2.05;0.20;;;;;;;20.60;55.63;101483.56;7381364;19;20018;-77
2022/07/03 11:55:47;;;;;;;3.30;0.20;;;;;;;20.62;54.50;101486.06;7380112;19;21463;-77
2022/07/03 11:58:41;;;;;;;1.50;0.20;;;;;;;20.60;54.85;101477.41;7384042;19;20014;-77
2022/07/03 12:01:27;;;;;;;2.10;0.20;;;;;;;20.65;54.93;101474.94;7381280;19;20011;-78
2022/07/03 12:04:16;;;;;;;1.63;0.20;;;;;;;20.76;54.98;101472.50;7382155;19;20047;-78
2022/07/03 12:06:53;;;;;;;0.90;0.20;;;;;;;20.89;53.03;101477.03;7380765;19;20007;-79
2022/07/03 12:09:26;;;;;;;0.52;0.10;;;;;;;21.03;52.91;101472.53;7383253;19;20492;-77
2022/07/03 12:12:07;;;;;;;0.40;0.10;;;;;;;21.14;52.07;101483.44;7382127;19;20027;-77
2022/07/03 12:14:35;;;;;;;1.42;0.20;;;;;;;21.21;51.71;101478.09;7385436;19;20031;-78
2022/07/03 12:17:09;;;;;;;0.50;0.20;;;;;;;21.28;52.27;101478.94;7378372;19;20455;-77
2022/07/03 12:19:45;;;;;;;1.23;0.17;;;;;;;21.33;50.87;101479.94;7380180;19;20554;-76
2022/07/03 12:22:29;;;;;;;0.22;0.08;;;;;;;21.28;50.12;101477.06;7383803;19;20715;-79
2022/07/03 12:25:06;;;;;;;2.38;0.17;;;;;;;21.22;51.07;101485.94;7389254;19;20030;-77